Time;durP1;ratioP1;P1;durP2;ratioP2;P2;SDS_P1;SDS_P2;PMS_P1;PMS_P2;Temp;Humidity;BMP_temperature;BMP_pressure;BME280_temperature;BME280_humidity;BME280_pressure;Samples;Min_cycle;Max_cycle;Signal;HPM_P1;HPM_P2
2024/01/12 00:01:45;;;;;;;59.20;36.20;;;-0.40;99.90;;;;;;5099671;28;20546;-63
2024/01/12 00:04:11;;;;;;;59.23;34.37;;;-0.40;99.90;;;;;;5107077;28;20176;-63
2024/01/12 00:06:38;;;;;;;65.70;37.20;;;-0.40;99.90;;;;;;5115988;28;20260;-63
2024/01/12 00:09:04;;;;;;;62.97;37.50;;;-0.40;99.90;;;;;;5115770;28;20217;-63
2024/01/12 00:11:30;;;;;;;62.03;37.53;;;-0.40;99.90;;;;;;5107797;28;20177;-63
2024/01/12 00:13:55;;;;;;;58.87;35.03;;;-0.40;99.90;;;;;;5103030;28;20215;-63
2024/01/12 00:16:21;;;;;;;61.10;35.03;;;-0.30;99.90;;;;;;5102443;28;20204;-63
2024/01/12 00:18:47;;;;;;;59.73;37.23;;;-0.30;99.90;;;;;;5095884;28;20173;-64
2024/01/12 00:21:14;;;;;;;61.33;34.07;;;-0.30;99.90;;;;;;5095295;28;20632;-63
2024/01/12 00:23:40;;;;;;;63.13;36.33;;;-0.30;99.90;;;;;;5095301;28;20181;-63
2024/01/12 00:26:05;;;;;;;66.70;37.10;;;-0.30;99.90;;;;;;5101109;28;20172;-63
2024/01/12 00:28:32;;;;;;;68.20;38.57;;;-0.30;99.90;;;;;;5097627;28;20230;-63
2024/01/12 00:30:57;;;;;;;63.10;38.20;;;-0.30;99.90;;;;;;5100805;28;20183;-62
2024/01/12 00:33:23;;;;;;;59.77;35.30;;;-0.30;99.90;;;;;;5114326;28;20202;-63
2024/01/12 00:35:49;;;;;;;75.13;38.27;;;-0.30;99.90;;;;;;5115710;28;20177;-63
2024/01/12 00:38:15;;;;;;;72.23;39.13;;;-0.30;99.90;;;;;;5111438;28;20232;-62
2024/01/12 00:40:41;;;;;;;71.93;38.90;;;-0.30;99.90;;;;;;5107479;28;20203;-63
2024/01/12 00:43:07;;;;;;;70.33;37.60;;;-0.40;99.90;;;;;;5106327;28;20546;-62
2024/01/12 00:45:33;;;;;;;72.27;37.83;;;-0.40;99.90;;;;;;5096154;28;20187;-63
2024/01/12 00:47:59;;;;;;;62.87;36.50;;;-0.40;99.90;;;;;;5094711;28;20287;-63
2024/01/12 00:50:25;;;;;;;83.63;40.90;;;-0.30;99.90;;;;;;5094695;28;20255;-63
2024/01/12 00:52:51;;;;;;;62.00;37.40;;;-0.30;99.90;;;;;;5096784;28;20233;-62
2024/01/12 00:55:17;;;;;;;65.37;37.07;;;-0.30;99.90;;;;;;5113055;28;20180;-63
2024/01/12 00:57:43;;;;;;;61.70;35.27;;;-0.30;99.90;;;;;;5110283;28;20192;-63
2024/01/12 01:00:09;;;;;;;72.87;38.33;;;-0.30;99.90;;;;;;5110119;28;20177;-62
2024/01/12 01:02:35;;;;;;;66.60;37.57;;;-0.30;99.90;;;;;;5110946;28;20176;-63
2024/01/12 01:05:01;;;;;;;75.60;40.00;;;-0.20;99.90;;;;;;5102294;28;20179;-63
2024/01/12 01:07:28;;;;;;;80.27;40.83;;;-0.30;99.90;;;;;;5097575;28;20210;-63
2024/01/12 01:09:54;;;;;;;79.70;40.33;;;-0.30;99.90;;;;;;5094489;28;20630;-63
2024/01/12 01:12:20;;;;;;;71.97;37.70;;;-0.30;99.90;;;;;;5094457;28;20173;-63
2024/01/12 01:14:46;;;;;;;76.27;40.40;;;-0.30;99.90;;;;;;5094245;28;20200;-63
2024/01/12 01:17:12;;;;;;;67.50;37.07;;;-0.30;99.90;;;;;;5095337;28;20197;-63
2024/01/12 01:19:38;;;;;;;65.83;37.13;;;-0.30;99.90;;;;;;5094343;28;20227;-63
2024/01/12 01:22:04;;;;;;;76.20;38.07;;;-0.20;99.90;;;;;;5111948;28;20180;-63
2024/01/12 01:24:30;;;;;;;71.97;40.97;;;-0.20;99.90;;;;;;5102037;28;20185;-63
2024/01/12 01:26:57;;;;;;;83.77;38.37;;;-0.20;99.90;;;;;;5094054;28;20199;-63
2024/01/12 01:29:23;;;;;;;79.03;41.83;;;-0.20;99.90;;;;;;5094079;28;20218;-63
2024/01/12 01:31:49;;;;;;;80.17;41.10;;;-0.30;99.90;;;;;;5094904;28;20189;-63
2024/01/12 01:34:15;;;;;;;72.97;37.93;;;-0.30;99.90;;;;;;5093932;28;20197;-63
2024/01/12 01:36:41;;;;;;;79.03;36.33;;;-0.30;99.90;;;;;;5109116;28;20606;-64
2024/01/12 01:39:08;;;;;;;77.63;38.93;;;-0.20;99.90;;;;;;5114113;28;20168;-63
2024/01/12 01:41:35;;;;;;;94.50;42.10;;;-0.20;99.90;;;;;;5102972;27;20536;-63
2024/01/12 01:44:01;;;;;;;83.10;39.30;;;-0.20;99.90;;;;;;5101657;28;20181;-63
2024/01/12 01:46:28;;;;;;;83.07;40.43;;;-0.20;99.90;;;;;;5102553;28;20207;-63
2024/01/12 01:48:54;;;;;;;90.43;40.37;;;-0.10;99.90;;;;;;5092416;28;20280;-63
2024/01/12 01:51:20;;;;;;;88.43;41.80;;;-0.20;99.90;;;;;;5094703;28;20189;-63
2024/01/12 01:53:46;;;;;;;78.10;40.67;;;-0.20;99.90;;;;;;5095488;28;20239;-63
2024/01/12 01:56:12;;;;;;;91.27;42.13;;;-0.20;99.90;;;;;;5106651;28;20255;-62
2024/01/12 01:58:39;;;;;;;92.87;42.83;;;-0.20;99.90;;;;;;5112624;28;20237;-63
2024/01/12 02:01:05;;;;;;;91.97;42.27;;;-0.20;99.90;;;;;;5099900;28;20555;-63
2024/01/12 02:03:32;;;;;;;92.30;42.70;;;-0.30;99.90;;;;;;5093361;28;20271;-63
2024/01/12 02:05:58;;;;;;;92.10;41.90;;;-0.30;99.90;;;;;;5095386;28;20218;-63
2024/01/12 02:08:26;;;;;;;87.70;40.47;;;-0.20;99.90;;;;;;5093157;28;20683;-62
2024/01/12 02:10:52;;;;;;;79.20;39.53;;;-0.20;99.90;;;;;;5100496;28;20264;-63
2024/01/12 02:13:19;;;;;;;90.23;41.80;;;-0.30;99.90;;;;;;5096455;28;20204;-63
2024/01/12 02:15:45;;;;;;;85.90;41.37;;;-0.20;99.90;;;;;;5110916;28;20173;-63
2024/01/12 02:18:10;;;;;;;84.33;41.37;;;-0.20;99.90;;;;;;5102382;28;20196;-63
2024/01/12 02:20:38;;;;;;;88.93;43.43;;;-0.30;99.90;;;;;;5093688;28;20326;-63
2024/01/12 02:23:03;;;;;;;87.20;42.00;;;-0.30;99.90;;;;;;5108802;28;20204;-64
2024/01/12 02:25:29;;;;;;;81.60;42.43;;;-0.30;99.90;;;;;;5113524;28;20222;-63
2024/01/12 02:27:55;;;;;;;75.37;40.03;;;-0.20;99.90;;;;;;5113852;28;20241;-63
2024/01/12 02:30:22;;;;;;;85.23;42.80;;;-0.20;99.90;;;;;;5102080;28;20198;-63
2024/01/12 02:32:47;;;;;;;89.37;42.57;;;-0.20;99.90;;;;;;5093114;28;20193;-63
2024/01/12 02:35:13;;;;;;;91.23;44.30;;;-0.10;99.90;;;;;;5093990;28;20672;-63
2024/01/12 02:37:39;;;;;;;96.57;43.27;;;-0.10;99.90;;;;;;5095577;28;20200;-63
2024/01/12 02:40:06;;;;;;;89.10;41.13;;;-0.10;99.90;;;;;;5092646;28;20184;-63
2024/01/12 02:42:32;;;;;;;85.40;41.50;;;-0.10;99.90;;;;;;5094403;28;20184;-63
2024/01/12 02:44:58;;;;;;;88.70;41.87;;;-0.10;99.90;;;;;;5108978;28;20184;-63
2024/01/12 02:47:24;;;;;;;89.70;42.07;;;-0.10;99.90;;;;;;5109861;28;20200;-62
2024/01/12 02:49:49;;;;;;;80.27;40.30;;;-0.10;99.90;;;;;;5094344;28;20629;-63
2024/01/12 02:52:15;;;;;;;81.30;37.93;;;-0.10;99.90;;;;;;5110053;28;20188;-64
2024/01/12 02:54:41;;;;;;;74.97;39.17;;;-0.10;99.90;;;;;;5108321;28;20256;-63
2024/01/12 02:57:07;;;;;;;89.37;41.97;;;-0.10;99.90;;;;;;5111594;28;20284;-63
2024/01/12 02:59:32;;;;;;;78.40;39.40;;;0.00;99.90;;;;;;5113555;28;20183;-63
2024/01/12 03:01:58;;;;;;;72.43;38.47;;;0.00;99.90;;;;;;5096022;28;20276;-63
2024/01/12 03:04:24;;;;;;;85.73;40.50;;;0.00;99.90;;;;;;5092760;28;20310;-63
2024/01/12 03:06:50;;;;;;;78.23;37.07;;;0.00;99.90;;;;;;5098689;28;20216;-63
2024/01/12 03:09:15;;;;;;;78.27;36.80;;;0.00;99.90;;;;;;5093947;28;20209;-63
2024/01/12 03:11:41;;;;;;;67.00;35.47;;;0.00;99.90;;;;;;5112045;28;20180;-63
2024/01/12 03:14:08;;;;;;;86.43;39.23;;;0.00;99.90;;;;;;5106394;28;20203;-63
2024/01/12 03:16:34;;;;;;;82.93;39.63;;;0.00;99.90;;;;;;5095260;28;20280;-63
2024/01/12 03:18:59;;;;;;;83.33;38.30;;;0.00;99.90;;;;;;5092880;28;20207;-64
2024/01/12 03:21:25;;;;;;;88.10;38.23;;;0.00;99.90;;;;;;5105244;28;20172;-63
2024/01/12 03:23:51;;;;;;;73.40;36.33;;;0.00;99.90;;;;;;5111333;28;20601;-63
2024/01/12 03:26:17;;;;;;;84.03;38.07;;;0.00;99.90;;;;;;5113068;28;20176;-63
2024/01/12 03:28:42;;;;;;;84.63;39.07;;;0.00;99.90;;;;;;5114802;28;20251;-63
2024/01/12 03:31:08;;;;;;;93.10;39.20;;;0.10;99.90;;;;;;5106546;27;20181;-63
2024/01/12 03:33:34;;;;;;;91.80;38.30;;;0.00;99.90;;;;;;5097239;28;20189;-61
2024/01/12 03:36:05;;;;;;;79.83;36.17;;;0.00;99.90;;;;;;5112430;28;20180;-63
2024/01/12 03:38:30;;;;;;;78.60;35.70;;;0.00;99.90;;;;;;5116666;28;20281;-63
2024/01/12 03:40:56;;;;;;;85.23;36.73;;;0.00;99.90;;;;;;5102077;28;20230;-63
2024/01/12 03:43:22;;;;;;;75.57;36.37;;;0.00;99.90;;;;;;5115136;28;20180;-63
2024/01/12 03:45:48;;;;;;;89.53;40.27;;;0.00;99.90;;;;;;5110355;28;20206;-64
2024/01/12 03:48:13;;;;;;;78.67;38.53;;;0.00;99.90;;;;;;5096110;28;20200;-63
2024/01/12 03:50:39;;;;;;;80.00;37.17;;;0.00;99.90;;;;;;5106603;28;20187;-63
2024/01/12 03:53:05;;;;;;;90.40;40.17;;;0.00;99.90;;;;;;5108964;28;20213;-63
2024/01/12 03:55:31;;;;;;;92.03;39.53;;;0.00;99.90;;;;;;5110876;28;20545;-63
2024/01/12 03:57:57;;;;;;;74.30;37.40;;;0.00;99.90;;;;;;5116357;28;20188;-63
2024/01/12 04:00:22;;;;;;;91.43;41.37;;;0.00;99.90;;;;;;5113312;28;20709;-63
2024/01/12 04:02:48;;;;;;;79.40;37.10;;;0.00;99.90;;;;;;5110780;28;20604;-64
2024/01/12 04:05:14;;;;;;;83.30;38.20;;;0.00;99.90;;;;;;5098989;28;20227;-63
2024/01/12 04:07:40;;;;;;;81.80;35.87;;;0.00;99.90;;;;;;5095744;28;20571;-63
2024/01/12 04:10:06;;;;;;;89.93;39.93;;;0.00;99.90;;;;;;5095533;28;20170;-63
2024/01/12 04:12:32;;;;;;;97.33;43.10;;;0.10;99.90;;;;;;5103286;28;20184;-63
2024/01/12 04:14:57;;;;;;;87.70;39.43;;;0.00;99.90;;;;;;5097556;28;20180;-63
2024/01/12 04:17:23;;;;;;;107.77;42.67;;;0.00;99.90;;;;;;5095411;28;20326;-62
2024/01/12 04:19:49;;;;;;;78.70;36.93;;;0.10;99.90;;;;;;5097988;28;20209;-62
2024/01/12 04:22:15;;;;;;;86.83;38.03;;;0.10;99.90;;;;;;5115565;28;20630;-62
2024/01/12 04:24:40;;;;;;;82.50;39.60;;;0.10;99.90;;;;;;5110759;28;20660;-63
2024/01/12 04:27:07;;;;;;;91.00;40.57;;;0.10;99.90;;;;;;5114035;28;20279;-63
2024/01/12 04:29:34;;;;;;;90.00;40.40;;;0.00;99.90;;;;;;5113943;28;20656;-62
2024/01/12 04:31:59;;;;;;;91.57;41.87;;;0.10;99.90;;;;;;5105210;28;20264;-63
2024/01/12 04:34:25;;;;;;;93.53;40.43;;;0.10;99.90;;;;;;5103393;28;20763;-63
2024/01/12 04:36:51;;;;;;;90.97;39.40;;;0.00;99.90;;;;;;5115612;28;20207;-63
2024/01/12 04:39:16;;;;;;;83.70;37.60;;;0.00;99.90;;;;;;5114677;28;20184;-63
2024/01/12 04:41:42;;;;;;;81.17;37.27;;;0.00;99.90;;;;;;5116309;28;20248;-63
2024/01/12 04:44:08;;;;;;;86.90;39.37;;;0.00;99.90;;;;;;5115423;28;20180;-63
2024/01/12 04:46:34;;;;;;;102.20;42.07;;;0.10;99.90;;;;;;5115262;28;20333;-63
2024/01/12 04:49:00;;;;;;;95.30;41.53;;;0.00;99.90;;;;;;5115675;28;20173;-63
2024/01/12 04:51:26;;;;;;;102.33;41.63;;;0.00;99.90;;;;;;5115183;28;20216;-63
2024/01/12 04:53:51;;;;;;;101.80;41.37;;;0.00;99.90;;;;;;5114777;28;20192;-62
2024/01/12 04:56:17;;;;;;;98.63;39.43;;;0.00;99.90;;;;;;5115665;28;20259;-63
2024/01/12 04:58:43;;;;;;;92.73;41.83;;;0.00;99.90;;;;;;5114992;28;20199;-63
2024/01/12 05:01:09;;;;;;;97.40;38.77;;;0.00;99.90;;;;;;5103678;28;20583;-63
2024/01/12 05:03:34;;;;;;;92.27;38.83;;;0.00;99.90;;;;;;5093424;28;20188;-63
2024/01/12 05:06:00;;;;;;;90.57;38.60;;;0.00;99.90;;;;;;5094836;28;20177;-63
2024/01/12 05:08:26;;;;;;;86.47;37.63;;;0.00;99.90;;;;;;5094475;28;20698;-63
2024/01/12 05:10:54;;;;;;;88.50;39.33;;;0.00;99.90;;;;;;5094342;28;20267;-63
2024/01/12 05:13:20;;;;;;;83.30;37.87;;;0.00;99.90;;;;;;5094460;28;20193;-63
2024/01/12 05:15:45;;;;;;;78.47;37.00;;;0.00;99.90;;;;;;5094951;28;20528;-63
2024/01/12 05:18:11;;;;;;;82.87;38.03;;;0.00;99.90;;;;;;5094343;28;20573;-63
2024/01/12 05:20:37;;;;;;;80.00;36.00;;;0.00;99.90;;;;;;5094977;28;20603;-63
2024/01/12 05:23:03;;;;;;;85.60;38.63;;;0.00;99.90;;;;;;5094472;28;20177;-63
2024/01/12 05:25:29;;;;;;;99.23;39.50;;;0.00;99.90;;;;;;5094024;28;20212;-63
2024/01/12 05:27:55;;;;;;;84.30;35.17;;;0.00;99.90;;;;;;5093004;28;20199;-63
2024/01/12 05:30:21;;;;;;;74.80;35.67;;;0.00;99.90;;;;;;5094207;28;20219;-63
2024/01/12 05:32:46;;;;;;;80.80;36.03;;;0.00;99.90;;;;;;5094433;28;20200;-63
2024/01/12 05:35:12;;;;;;;72.07;34.03;;;0.00;99.90;;;;;;5093929;28;20676;-63
2024/01/12 05:37:38;;;;;;;65.83;31.93;;;0.00;99.90;;;;;;5093864;28;20262;-63
2024/01/12 05:40:04;;;;;;;65.40;32.30;;;0.00;99.90;;;;;;5093623;28;20181;-62
2024/01/12 05:42:30;;;;;;;62.17;30.63;;;0.10;99.90;;;;;;5093884;28;20689;-63
2024/01/12 05:44:56;;;;;;;47.37;23.43;;;0.10;99.90;;;;;;5093865;28;20264;-63
2024/01/12 05:47:21;;;;;;;51.47;25.00;;;0.10;99.90;;;;;;5093793;28;20571;-63
2024/01/12 05:49:47;;;;;;;44.50;23.60;;;0.10;99.90;;;;;;5092300;28;20276;-63
2024/01/12 05:52:13;;;;;;;39.07;21.73;;;0.10;99.90;;;;;;5093461;28;20189;-63
2024/01/12 05:54:38;;;;;;;40.70;22.40;;;0.10;99.90;;;;;;5093626;28;20193;-62
2024/01/12 05:57:04;;;;;;;40.17;21.80;;;0.10;99.90;;;;;;5093653;28;20567;-63
2024/01/12 05:59:30;;;;;;;40.43;22.60;;;0.10;99.90;;;;;;5093489;28;20173;-63
2024/01/12 06:01:56;;;;;;;29.20;19.40;;;0.10;99.90;;;;;;5093908;28;20282;-63
2024/01/12 06:04:22;;;;;;;28.67;17.73;;;0.10;99.90;;;;;;5093312;28;20181;-63
2024/01/12 06:06:48;;;;;;;34.10;18.80;;;0.10;99.90;;;;;;5093376;28;20208;-63
2024/01/12 06:09:15;;;;;;;35.43;19.77;;;0.10;99.90;;;;;;5093079;28;20223;-63
2024/01/12 06:11:44;;;;;;;35.37;20.73;;;0.10;99.90;;;;;;5093288;28;20179;-63
2024/01/12 06:14:10;;;;;;;31.57;20.23;;;0.10;99.90;;;;;;5093279;28;20192;-63
2024/01/12 06:16:36;;;;;;;33.57;19.43;;;0.10;99.90;;;;;;5093472;28;20606;-63
2024/01/12 06:19:02;;;;;;;33.17;19.47;;;0.10;99.90;;;;;;5093758;28;20161;-63
2024/01/12 06:21:28;;;;;;;37.87;20.53;;;0.10;99.90;;;;;;5093449;28;20173;-63
2024/01/12 06:23:53;;;;;;;34.83;18.60;;;0.10;99.90;;;;;;5093435;28;20211;-63
2024/01/12 06:26:19;;;;;;;34.47;19.07;;;0.10;99.90;;;;;;5092871;28;20646;-62
2024/01/12 06:28:45;;;;;;;33.53;18.00;;;0.10;99.90;;;;;;5093422;28;20161;-63
2024/01/12 06:31:11;;;;;;;29.80;17.57;;;0.10;99.90;;;;;;5093014;28;20180;-63
2024/01/12 06:33:36;;;;;;;25.07;16.87;;;0.10;99.90;;;;;;5091727;28;20206;-63
2024/01/12 06:36:02;;;;;;;32.17;19.27;;;0.10;99.90;;;;;;5093116;28;20174;-63
2024/01/12 06:38:28;;;;;;;21.13;15.50;;;0.20;99.90;;;;;;5092993;28;20591;-63
2024/01/12 06:40:54;;;;;;;23.30;15.20;;;0.20;99.90;;;;;;5092889;28;20634;-63
2024/01/12 06:43:20;;;;;;;22.93;15.07;;;0.20;99.90;;;;;;5091723;28;20177;-63
2024/01/12 06:45:46;;;;;;;20.87;15.07;;;0.20;99.90;;;;;;5092880;28;20178;-63
2024/01/12 06:48:12;;;;;;;24.50;17.03;;;0.20;99.90;;;;;;5092829;28;20208;-63
2024/01/12 06:50:38;;;;;;;31.33;19.27;;;0.30;99.90;;;;;;5092859;28;20208;-62
2024/01/12 06:53:08;;;;;;;35.47;18.87;;;0.30;99.90;;;;;;5092753;28;20193;-62
2024/01/12 06:55:37;;;;;;;33.77;17.10;;;0.30;99.90;;;;;;5092707;28;20162;-62
2024/01/12 06:58:03;;;;;;;28.50;16.10;;;0.30;99.90;;;;;;5092842;28;20258;-62
2024/01/12 07:00:29;;;;;;;22.33;15.83;;;0.20;99.90;;;;;;5092772;28;20665;-63
2024/01/12 07:02:55;;;;;;;25.33;15.70;;;0.20;99.90;;;;;;5094485;28;20181;-62
2024/01/12 07:05:21;;;;;;;25.53;15.77;;;0.20;99.90;;;;;;5096643;28;20191;-63
2024/01/12 07:07:47;;;;;;;24.40;15.70;;;0.10;99.90;;;;;;5096571;28;20287;-63
2024/01/12 07:10:12;;;;;;;27.97;17.60;;;0.10;99.90;;;;;;5094986;28;20212;-62
2024/01/12 07:12:38;;;;;;;27.07;16.13;;;0.20;99.90;;;;;;5095132;28;20201;-62
2024/01/12 07:15:07;;;;;;;25.73;16.37;;;0.20;99.90;;;;;;5096412;28;20170;-63
2024/01/12 07:17:33;;;;;;;23.83;15.93;;;0.20;99.90;;;;;;5096698;28;20574;-63
2024/01/12 07:19:59;;;;;;;23.40;15.27;;;0.20;99.90;;;;;;5096366;28;20244;-63
2024/01/12 07:22:25;;;;;;;29.00;16.53;;;0.10;99.90;;;;;;5096873;28;20218;-63
2024/01/12 07:24:50;;;;;;;27.07;17.10;;;0.10;99.90;;;;;;5096093;28;20626;-62
2024/01/12 07:27:16;;;;;;;27.40;16.80;;;0.10;99.90;;;;;;5096300;28;20591;-63
2024/01/12 07:29:42;;;;;;;28.97;18.40;;;0.10;99.90;;;;;;5096437;28;20173;-62
2024/01/12 07:32:08;;;;;;;34.13;16.73;;;0.10;99.90;;;;;;5096144;28;20192;-62
2024/01/12 07:34:34;;;;;;;32.93;17.37;;;0.10;99.90;;;;;;5096491;28;20197;-62
2024/01/12 07:37:00;;;;;;;33.77;17.77;;;0.20;99.90;;;;;;5096511;28;20189;-63
2024/01/12 07:39:26;;;;;;;32.47;19.00;;;0.20;99.90;;;;;;5095775;28;20192;-62
2024/01/12 07:41:52;;;;;;;36.97;19.33;;;0.20;99.90;;;;;;5096324;28;20639;-63
2024/01/12 07:44:18;;;;;;;42.17;22.27;;;0.20;99.90;;;;;;5095887;28;20173;-63
2024/01/12 07:46:43;;;;;;;43.47;23.67;;;0.30;99.90;;;;;;5096116;28;20196;-63
2024/01/12 07:49:09;;;;;;;47.70;23.50;;;0.20;99.90;;;;;;5095832;28;20177;-62
2024/01/12 07:51:35;;;;;;;55.03;24.97;;;0.10;99.90;;;;;;5095710;28;20217;-62
2024/01/12 07:54:00;;;;;;;47.80;23.07;;;0.10;99.90;;;;;;5095695;28;20229;-63
2024/01/12 07:56:26;;;;;;;47.37;24.10;;;0.10;99.90;;;;;;5095380;28;20193;-62
2024/01/12 07:58:52;;;;;;;46.80;22.90;;;0.10;99.90;;;;;;5095784;28;20191;-63
2024/01/12 08:01:18;;;;;;;60.63;26.87;;;0.10;99.90;;;;;;5095470;28;20182;-62
2024/01/12 08:03:44;;;;;;;66.80;27.53;;;0.00;99.90;;;;;;5095795;28;20169;-63
2024/01/12 08:06:10;;;;;;;61.77;28.07;;;0.00;99.90;;;;;;5095409;28;20642;-62
2024/01/12 08:08:37;;;;;;;68.47;28.17;;;0.00;99.90;;;;;;5095411;28;20173;-63
2024/01/12 08:11:03;;;;;;;67.50;30.87;;;0.10;99.90;;;;;;5095367;28;20185;-63
2024/01/12 08:13:29;;;;;;;92.57;35.40;;;0.00;99.90;;;;;;5095170;28;20189;-63
2024/01/12 08:15:54;;;;;;;82.77;31.77;;;0.10;99.90;;;;;;5095425;28;20176;-63
2024/01/12 08:18:20;;;;;;;80.70;30.50;;;0.20;99.90;;;;;;5095216;28;20555;-62
2024/01/12 08:20:46;;;;;;;82.77;33.43;;;0.20;99.90;;;;;;5094024;28;20299;-62
2024/01/12 08:23:12;;;;;;;85.63;33.60;;;0.20;99.90;;;;;;5095396;28;20661;-63
2024/01/12 08:25:38;;;;;;;87.93;33.13;;;0.30;99.90;;;;;;5094911;28;20184;-63
2024/01/12 08:28:04;;;;;;;74.07;31.27;;;0.20;99.90;;;;;;5095009;28;20200;-63
2024/01/12 08:30:30;;;;;;;66.50;30.37;;;0.20;99.90;;;;;;5094952;28;20184;-63
2024/01/12 08:32:55;;;;;;;68.97;28.47;;;0.30;99.90;;;;;;5094929;28;20174;-62
2024/01/12 08:35:21;;;;;;;61.50;30.20;;;0.20;99.90;;;;;;5094899;28;20169;-63
2024/01/12 08:37:47;;;;;;;52.50;28.50;;;0.20;99.90;;;;;;5095058;28;20193;-62
2024/01/12 08:40:13;;;;;;;52.27;26.33;;;0.20;99.90;;;;;;5094840;28;20187;-62
2024/01/12 08:42:39;;;;;;;49.10;24.20;;;0.20;99.90;;;;;;5094793;28;20165;-63
2024/01/12 08:45:06;;;;;;;42.73;24.50;;;0.20;99.90;;;;;;5093486;28;20225;-62
2024/01/12 08:47:31;;;;;;;40.53;22.80;;;0.10;99.90;;;;;;5094685;28;20268;-63
2024/01/12 08:49:58;;;;;;;41.00;22.17;;;0.20;99.90;;;;;;5094587;28;20583;-62
2024/01/12 08:52:24;;;;;;;39.07;23.30;;;0.20;99.90;;;;;;5094590;28;20169;-63
2024/01/12 08:54:50;;;;;;;37.40;22.83;;;0.20;99.90;;;;;;5094268;28;20199;-62
2024/01/12 08:57:15;;;;;;;32.17;21.13;;;0.20;99.90;;;;;;5094438;28;20188;-63
2024/01/12 08:59:41;;;;;;;32.00;21.30;;;0.20;99.90;;;;;;5095078;28;20169;-63
2024/01/12 09:02:07;;;;;;;27.30;19.07;;;0.20;99.90;;;;;;5094434;28;20174;-63
2024/01/12 09:04:34;;;;;;;29.83;19.57;;;0.20;99.90;;;;;;5094275;28;20180;-63
2024/01/12 09:07:00;;;;;;;32.87;19.97;;;0.20;99.90;;;;;;5094274;28;20221;-62
2024/01/12 09:09:26;;;;;;;29.20;19.37;;;0.20;99.90;;;;;;5094112;28;20692;-63
2024/01/12 09:11:52;;;;;;;28.37;18.83;;;0.20;99.90;;;;;;5093818;28;20192;-63
2024/01/12 09:14:17;;;;;;;30.13;18.43;;;0.20;99.90;;;;;;5094000;28;20224;-62
2024/01/12 09:16:43;;;;;;;28.50;19.77;;;0.20;99.90;;;;;;5093965;28;20193;-62
2024/01/12 09:19:09;;;;;;;33.70;20.87;;;0.20;99.90;;;;;;5094350;28;20169;-62
2024/01/12 09:21:35;;;;;;;29.07;18.60;;;0.30;99.90;;;;;;5094107;28;20248;-63
2024/01/12 09:24:01;;;;;;;24.70;17.53;;;0.30;99.90;;;;;;5094297;28;20184;-63
2024/01/12 09:26:27;;;;;;;26.80;19.17;;;0.30;99.90;;;;;;5093864;28;20738;-63
2024/01/12 09:28:52;;;;;;;34.00;20.57;;;0.30;99.90;;;;;;5094399;28;20178;-63
2024/01/12 09:31:18;;;;;;;29.33;19.40;;;0.20;99.90;;;;;;5094107;28;20228;-63
2024/01/12 09:33:44;;;;;;;33.10;19.43;;;0.20;99.90;;;;;;5093694;28;20385;-63
2024/01/12 09:36:10;;;;;;;24.57;18.20;;;0.20;99.90;;;;;;5092403;28;20173;-62
2024/01/12 09:38:36;;;;;;;32.73;19.60;;;0.30;99.90;;;;;;5093702;28;20630;-63
2024/01/12 09:41:08;;;;;;;33.20;20.40;;;0.30;99.90;;;;;;5093487;28;20192;-63
2024/01/12 09:43:36;;;;;;;36.17;21.43;;;0.30;99.90;;;;;;5093677;28;20274;-63
2024/01/12 09:46:08;;;;;;;34.50;22.07;;;0.30;99.90;;;;;;5093957;28;20200;-64
2024/01/12 09:48:34;;;;;;;30.83;20.63;;;0.30;99.90;;;;;;5093945;28;20154;-63
2024/01/12 09:51:01;;;;;;;37.53;23.17;;;0.30;99.90;;;;;;5093379;28;20185;-63
2024/01/12 09:53:27;;;;;;;31.40;20.20;;;0.30;99.90;;;;;;5093461;28;20238;-63
2024/01/12 09:55:54;;;;;;;33.17;21.87;;;0.40;99.90;;;;;;5093032;28;20611;-63
2024/01/12 09:58:24;;;;;;;39.70;23.17;;;0.40;99.90;;;;;;5093646;28;20228;-63
2024/01/12 10:00:51;;;;;;;36.80;23.43;;;0.30;99.90;;;;;;5093676;28;20181;-64
2024/01/12 10:03:18;;;;;;;34.83;24.33;;;0.30;99.90;;;;;;5093399;28;20169;-63
2024/01/12 10:05:44;;;;;;;36.93;22.67;;;0.30;99.90;;;;;;5093340;28;20177;-63
2024/01/12 10:08:10;;;;;;;35.80;22.13;;;0.40;99.90;;;;;;5093247;28;20624;-62
2024/01/12 10:10:38;;;;;;;39.07;22.23;;;0.40;99.90;;;;;;5093506;28;20177;-63
2024/01/12 10:13:04;;;;;;;41.87;23.23;;;0.40;99.90;;;;;;5093164;28;20196;-63
2024/01/12 10:15:30;;;;;;;42.87;23.53;;;0.30;99.90;;;;;;5093648;28;20181;-63
2024/01/12 10:17:56;;;;;;;39.60;23.37;;;0.40;99.90;;;;;;5093135;28;20220;-63
2024/01/12 10:20:22;;;;;;;34.13;22.83;;;0.40;99.90;;;;;;5093121;28;20180;-63
2024/01/12 10:22:57;;;;;;;34.77;21.87;;;0.40;99.90;;;;;;5093232;28;20206;-62
2024/01/12 10:25:23;;;;;;;38.87;24.10;;;0.40;99.90;;;;;;5093106;28;20541;-62
2024/01/12 10:27:56;;;;;;;45.17;24.07;;;0.40;99.90;;;;;;5093339;28;20201;-62
2024/01/12 10:30:22;;;;;;;45.33;25.17;;;0.40;99.90;;;;;;5093354;28;20645;-62
2024/01/12 10:32:52;;;;;;;45.60;25.77;;;0.40;99.90;;;;;;5093633;28;20176;-63
2024/01/12 10:35:20;;;;;;;41.20;23.37;;;0.40;99.90;;;;;;5093132;28;20157;-63
2024/01/12 10:37:47;;;;;;;35.27;21.53;;;0.40;99.90;;;;;;5094689;28;20244;-63
2024/01/12 10:40:16;;;;;;;40.07;22.90;;;0.40;99.90;;;;;;5096891;28;20318;-62
2024/01/12 10:42:50;;;;;;;43.97;23.43;;;0.40;99.90;;;;;;5095820;28;20634;-63
2024/01/12 10:45:23;;;;;;;35.20;20.73;;;0.40;99.90;;;;;;5097510;28;20167;-63
2024/01/12 10:48:10;;;;;;;37.70;20.83;;;0.40;99.90;;;;;;5097021;28;20197;-63
2024/01/12 10:50:42;;;;;;;40.57;23.40;;;0.40;99.90;;;;;;5097353;28;20724;-63
2024/01/12 10:53:35;;;;;;;42.23;23.67;;;0.40;99.90;;;;;;5096919;28;20228;-63
2024/01/12 10:56:03;;;;;;;41.47;23.27;;;0.40;99.90;;;;;;5090267;28;20555;-63
2024/01/12 10:58:29;;;;;;;38.37;22.83;;;0.30;99.90;;;;;;5096763;28;20197;-63
2024/01/12 11:00:55;;;;;;;44.10;23.30;;;0.30;99.90;;;;;;5095337;28;20185;-63
2024/01/12 11:03:22;;;;;;;43.17;23.20;;;0.30;99.90;;;;;;5096803;28;20545;-62
2024/01/12 11:05:49;;;;;;;48.50;24.43;;;0.30;99.90;;;;;;5097047;28;20183;-63
2024/01/12 11:08:15;;;;;;;52.03;24.83;;;0.30;99.90;;;;;;5096537;28;20201;-63
2024/01/12 11:10:46;;;;;;;47.80;24.40;;;0.30;99.90;;;;;;5096361;28;20177;-62
2024/01/12 11:13:16;;;;;;;49.77;25.63;;;0.40;99.90;;;;;;5097129;28;20272;-63
2024/01/12 11:15:43;;;;;;;43.93;24.77;;;0.40;99.90;;;;;;5096838;28;20256;-63
2024/01/12 11:18:09;;;;;;;58.00;25.17;;;0.40;99.90;;;;;;5097031;28;20193;-63
2024/01/12 11:20:34;;;;;;;57.97;27.77;;;0.30;99.90;;;;;;5096264;28;20177;-62
2024/01/12 11:23:00;;;;;;;65.67;28.43;;;0.30;99.90;;;;;;5096689;28;20234;-62
2024/01/12 11:25:26;;;;;;;72.27;31.43;;;0.30;99.90;;;;;;5096259;28;20226;-63
2024/01/12 11:27:53;;;;;;;62.37;32.57;;;0.30;99.90;;;;;;5096263;28;20678;-63
2024/01/12 11:30:21;;;;;;;81.97;32.13;;;0.30;99.90;;;;;;5096464;28;20181;-63
2024/01/12 11:32:47;;;;;;;70.90;32.63;;;0.30;99.90;;;;;;5096059;28;20642;-63
2024/01/12 11:35:14;;;;;;;65.07;31.57;;;0.30;99.90;;;;;;5096207;28;20227;-63
2024/01/12 11:38:01;;;;;;;69.00;31.33;;;0.40;99.90;;;;;;5094740;28;20208;-63
2024/01/12 11:40:28;;;;;;;68.27;34.03;;;0.40;99.90;;;;;;5096281;28;20576;-62
2024/01/12 11:42:53;;;;;;;71.60;32.17;;;0.40;99.90;;;;;;5096141;28;20563;-62
2024/01/12 11:45:20;;;;;;;72.53;32.03;;;0.30;99.90;;;;;;5095967;28;20181;-63
2024/01/12 11:47:46;;;;;;;71.80;32.40;;;0.30;99.90;;;;;;5096062;28;20196;-63
2024/01/12 11:50:14;;;;;;;72.93;32.43;;;0.30;99.90;;;;;;5094564;28;20181;-63
2024/01/12 11:52:40;;;;;;;65.13;31.93;;;0.30;99.90;;;;;;5095786;28;20150;-62
2024/01/12 11:55:07;;;;;;;77.00;35.17;;;0.30;99.90;;;;;;5095668;28;20296;-61
2024/01/12 11:57:36;;;;;;;65.93;31.80;;;0.30;99.90;;;;;;5095811;28;20242;-62
2024/01/12 12:00:06;;;;;;;66.20;31.43;;;0.40;99.90;;;;;;5095757;28;20173;-63
2024/01/12 12:02:36;;;;;;;79.90;35.10;;;0.40;99.90;;;;;;5096057;28;20193;-63
2024/01/12 12:05:06;;;;;;;77.47;33.57;;;0.40;99.90;;;;;;5095793;28;20185;-62
2024/01/12 12:07:36;;;;;;;77.10;34.07;;;0.40;99.90;;;;;;5095827;28;20611;-63
2024/01/12 12:10:02;;;;;;;65.13;32.93;;;0.30;99.90;;;;;;5095751;28;20173;-63
2024/01/12 12:12:28;;;;;;;83.53;33.70;;;0.30;99.90;;;;;;5095234;28;20173;-63
2024/01/12 12:15:15;;;;;;;73.70;33.33;;;0.30;99.90;;;;;;5095304;28;20689;-63
2024/01/12 12:17:48;;;;;;;75.87;34.77;;;0.40;99.90;;;;;;5095412;28;20689;-63
2024/01/12 12:20:15;;;;;;;83.73;34.43;;;0.40;99.90;;;;;;5095296;28;20206;-63
2024/01/12 12:22:45;;;;;;;69.37;31.33;;;0.30;99.90;;;;;;5095261;28;20172;-63
2024/01/12 12:25:13;;;;;;;79.07;34.03;;;0.30;99.90;;;;;;5095451;28;20214;-61
2024/01/12 12:27:40;;;;;;;85.00;33.13;;;0.30;99.90;;;;;;5095051;28;20208;-63
2024/01/12 12:30:10;;;;;;;67.97;32.53;;;0.40;99.90;;;;;;5095061;28;20642;-63